sensor_id;sensor_type;location;lat;lon;timestamp;pressure;altitude;pressure_sealevel;temperature;humidity
34205;BME280;20471;49.680;20.074;2024-03-02T00:00:23;96586.64;;;4.31;77.65
34205;BME280;20471;49.680;20.074;2024-03-02T00:03:11;96582.36;;;4.25;77.72
34205;BME280;20471;49.680;20.074;2024-03-02T00:05:40;96577.33;;;4.23;77.82
34205;BME280;20471;49.680;20.074;2024-03-02T00:08:09;96578.27;;;4.22;77.78
34205;BME280;20471;49.680;20.074;2024-03-02T00:10:40;96578.34;;;4.18;77.75
34205;BME280;20471;49.680;20.074;2024-03-02T00:13:08;96580.11;;;4.13;77.79
34205;BME280;20471;49.680;20.074;2024-03-02T00:15:55;96579.72;;;4.12;77.79
34205;BME280;20471;49.680;20.074;2024-03-02T00:18:30;96574.58;;;4.09;77.87
34205;BME280;20471;49.680;20.074;2024-03-02T00:20:58;96570.27;;;4.07;77.85
34205;BME280;20471;49.680;20.074;2024-03-02T00:23:31;96569.70;;;4.03;77.87
34205;BME280;20471;49.680;20.074;2024-03-02T00:25:59;96570.87;;;4.02;77.94
34205;BME280;20471;49.680;20.074;2024-03-02T00:28:31;96568.14;;;3.99;78.10
34205;BME280;20471;49.680;20.074;2024-03-02T00:31:12;96568.02;;;3.97;78.16
34205;BME280;20471;49.680;20.074;2024-03-02T00:33:45;96570.67;;;3.96;78.27
34205;BME280;20471;49.680;20.074;2024-03-02T00:36:22;96574.16;;;3.95;78.43
34205;BME280;20471;49.680;20.074;2024-03-02T00:38:52;96576.17;;;3.97;78.52
34205;BME280;20471;49.680;20.074;2024-03-02T00:41:31;96574.46;;;3.97;78.50
34205;BME280;20471;49.680;20.074;2024-03-02T00:44:12;96571.24;;;3.93;78.48
34205;BME280;20471;49.680;20.074;2024-03-02T00:46:42;96572.30;;;3.88;78.49
34205;BME280;20471;49.680;20.074;2024-03-02T00:51:48;96576.12;;;3.83;78.64
34205;BME280;20471;49.680;20.074;2024-03-02T00:54:24;96574.83;;;3.82;78.66
34205;BME280;20471;49.680;20.074;2024-03-02T00:56:53;96571.40;;;3.80;78.67
34205;BME280;20471;49.680;20.074;2024-03-02T00:59:25;96566.47;;;3.80;78.80
34205;BME280;20471;49.680;20.074;2024-03-02T01:01:52;96564.48;;;3.79;78.75
34205;BME280;20471;49.680;20.074;2024-03-02T01:04:20;96562.57;;;3.77;78.78
34205;BME280;20471;49.680;20.074;2024-03-02T01:06:48;96559.52;;;3.76;78.83
34205;BME280;20471;49.680;20.074;2024-03-02T01:09:16;96559.84;;;3.75;78.83
34205;BME280;20471;49.680;20.074;2024-03-02T01:11:44;96559.79;;;3.72;78.98
34205;BME280;20471;49.680;20.074;2024-03-02T01:14:11;96558.14;;;3.71;78.98
34205;BME280;20471;49.680;20.074;2024-03-02T01:16:39;96553.89;;;3.71;79.00
34205;BME280;20471;49.680;20.074;2024-03-02T01:19:07;96554.73;;;3.71;79.03
34205;BME280;20471;49.680;20.074;2024-03-02T01:21:36;96560.65;;;3.69;78.97
34205;BME280;20471;49.680;20.074;2024-03-02T01:24:04;96558.23;;;3.66;78.93
34205;BME280;20471;49.680;20.074;2024-03-02T01:26:31;96559.45;;;3.65;78.98
34205;BME280;20471;49.680;20.074;2024-03-02T01:28:59;96561.68;;;3.62;78.92
34205;BME280;20471;49.680;20.074;2024-03-02T01:31:27;96557.25;;;3.61;78.93
34205;BME280;20471;49.680;20.074;2024-03-02T01:33:54;96553.77;;;3.59;79.05
34205;BME280;20471;49.680;20.074;2024-03-02T01:36:22;96546.83;;;3.56;79.08
34205;BME280;20471;49.680;20.074;2024-03-02T01:38:50;96545.03;;;3.56;79.18
34205;BME280;20471;49.680;20.074;2024-03-02T01:41:17;96549.83;;;3.56;79.17
34205;BME280;20471;49.680;20.074;2024-03-02T01:43:45;96555.39;;;3.57;79.28
34205;BME280;20471;49.680;20.074;2024-03-02T01:46:13;96549.16;;;3.56;79.35
34205;BME280;20471;49.680;20.074;2024-03-02T01:48:40;96544.25;;;3.54;79.32
34205;BME280;20471;49.680;20.074;2024-03-02T01:51:08;96542.92;;;3.53;79.26
34205;BME280;20471;49.680;20.074;2024-03-02T01:53:37;96541.46;;;3.53;79.30
34205;BME280;20471;49.680;20.074;2024-03-02T01:56:05;96538.14;;;3.53;79.45
34205;BME280;20471;49.680;20.074;2024-03-02T01:58:32;96535.39;;;3.51;79.42
34205;BME280;20471;49.680;20.074;2024-03-02T02:01:00;96540.08;;;3.50;79.46
34205;BME280;20471;49.680;20.074;2024-03-02T02:03:28;96539.21;;;3.50;79.50
34205;BME280;20471;49.680;20.074;2024-03-02T02:05:56;96536.10;;;3.47;79.32
34205;BME280;20471;49.680;20.074;2024-03-02T02:08:23;96537.33;;;3.40;79.15
34205;BME280;20471;49.680;20.074;2024-03-02T02:10:51;96534.27;;;3.34;79.26
34205;BME280;20471;49.680;20.074;2024-03-02T02:13:19;96536.93;;;3.31;79.26
34205;BME280;20471;49.680;20.074;2024-03-02T02:15:46;96535.40;;;3.30;79.26
34205;BME280;20471;49.680;20.074;2024-03-02T02:18:14;96537.86;;;3.26;79.28
34205;BME280;20471;49.680;20.074;2024-03-02T02:20:42;96537.88;;;3.23;79.29
34205;BME280;20471;49.680;20.074;2024-03-02T02:23:09;96533.58;;;3.20;79.23
34205;BME280;20471;49.680;20.074;2024-03-02T02:25:39;96533.92;;;3.19;79.37
34205;BME280;20471;49.680;20.074;2024-03-02T02:28:06;96530.17;;;3.18;79.39
34205;BME280;20471;49.680;20.074;2024-03-02T02:30:34;96523.58;;;3.16;79.38
34205;BME280;20471;49.680;20.074;2024-03-02T02:33:02;96518.14;;;3.13;79.38
34205;BME280;20471;49.680;20.074;2024-03-02T02:35:29;96516.05;;;3.10;79.46
34205;BME280;20471;49.680;20.074;2024-03-02T02:37:58;96517.23;;;3.09;79.59
34205;BME280;20471;49.680;20.074;2024-03-02T02:40:26;96518.66;;;3.09;79.71
34205;BME280;20471;49.680;20.074;2024-03-02T02:42:59;96521.27;;;3.08;79.67
34205;BME280;20471;49.680;20.074;2024-03-02T02:45:26;96519.23;;;3.09;79.76
34205;BME280;20471;49.680;20.074;2024-03-02T02:47:54;96520.73;;;3.08;79.72
34205;BME280;20471;49.680;20.074;2024-03-02T02:50:22;96519.58;;;3.07;79.66
34205;BME280;20471;49.680;20.074;2024-03-02T02:52:50;96512.40;;;3.08;79.79
34205;BME280;20471;49.680;20.074;2024-03-02T02:55:17;96510.60;;;3.08;79.76
34205;BME280;20471;49.680;20.074;2024-03-02T02:57:45;96512.86;;;3.08;79.78
34205;BME280;20471;49.680;20.074;2024-03-02T03:00:14;96523.19;;;3.07;79.79
34205;BME280;20471;49.680;20.074;2024-03-02T03:02:48;96527.59;;;3.06;79.70
34205;BME280;20471;49.680;20.074;2024-03-02T03:05:16;96526.90;;;3.06;79.77
34205;BME280;20471;49.680;20.074;2024-03-02T03:07:43;96520.25;;;3.03;79.73
34205;BME280;20471;49.680;20.074;2024-03-02T03:10:11;96523.08;;;3.01;79.87
34205;BME280;20471;49.680;20.074;2024-03-02T03:12:39;96523.48;;;2.97;79.89
34205;BME280;20471;49.680;20.074;2024-03-02T03:15:09;96521.63;;;2.95;79.94
34205;BME280;20471;49.680;20.074;2024-03-02T03:17:37;96518.25;;;2.90;80.03
34205;BME280;20471;49.680;20.074;2024-03-02T03:20:06;96512.27;;;2.88;80.12
34205;BME280;20471;49.680;20.074;2024-03-02T03:22:36;96514.96;;;2.88;80.24
34205;BME280;20471;49.680;20.074;2024-03-02T03:25:05;96515.16;;;2.88;80.23
34205;BME280;20471;49.680;20.074;2024-03-02T03:27:34;96510.24;;;2.89;80.23
34205;BME280;20471;49.680;20.074;2024-03-02T03:30:02;96511.27;;;2.91;80.28
34205;BME280;20471;49.680;20.074;2024-03-02T03:32:30;96517.33;;;2.88;80.37
34205;BME280;20471;49.680;20.074;2024-03-02T03:34:57;96512.55;;;2.86;80.48
34205;BME280;20471;49.680;20.074;2024-03-02T03:37:25;96514.13;;;2.88;80.60
34205;BME280;20471;49.680;20.074;2024-03-02T03:39:59;96517.31;;;2.91;80.73
34205;BME280;20471;49.680;20.074;2024-03-02T03:42:27;96511.11;;;2.94;80.78
34205;BME280;20471;49.680;20.074;2024-03-02T03:44:55;96499.45;;;2.93;80.79
34205;BME280;20471;49.680;20.074;2024-03-02T03:47:22;96496.96;;;2.93;80.93
34205;BME280;20471;49.680;20.074;2024-03-02T03:49:50;96504.48;;;2.94;81.02
34205;BME280;20471;49.680;20.074;2024-03-02T03:52:18;96500.91;;;2.95;81.06
34205;BME280;20471;49.680;20.074;2024-03-02T03:54:47;96503.94;;;2.94;81.20
34205;BME280;20471;49.680;20.074;2024-03-02T03:57:15;96505.41;;;2.94;81.17
34205;BME280;20471;49.680;20.074;2024-03-02T03:59:42;96508.20;;;2.93;81.19
34205;BME280;20471;49.680;20.074;2024-03-02T04:02:10;96507.56;;;2.95;81.33
34205;BME280;20471;49.680;20.074;2024-03-02T04:04:39;96509.10;;;2.99;81.34
34205;BME280;20471;49.680;20.074;2024-03-02T04:07:06;96511.95;;;2.97;81.21
34205;BME280;20471;49.680;20.074;2024-03-02T04:09:34;96513.61;;;2.97;81.11
34205;BME280;20471;49.680;20.074;2024-03-02T04:12:02;96511.56;;;2.99;81.30
34205;BME280;20471;49.680;20.074;2024-03-02T04:14:30;96510.23;;;3.02;81.34
34205;BME280;20471;49.680;20.074;2024-03-02T04:16:57;96504.45;;;3.02;81.20
34205;BME280;20471;49.680;20.074;2024-03-02T04:19:25;96502.42;;;2.97;81.11
34205;BME280;20471;49.680;20.074;2024-03-02T04:21:53;96507.25;;;2.93;81.11
34205;BME280;20471;49.680;20.074;2024-03-02T04:24:20;96512.50;;;2.89;81.13
34205;BME280;20471;49.680;20.074;2024-03-02T04:26:48;96506.87;;;2.88;81.25
34205;BME280;20471;49.680;20.074;2024-03-02T04:29:16;96504.63;;;2.88;81.28
34205;BME280;20471;49.680;20.074;2024-03-02T04:31:45;96497.78;;;2.91;81.35
34205;BME280;20471;49.680;20.074;2024-03-02T04:34:12;96499.36;;;2.92;81.44
34205;BME280;20471;49.680;20.074;2024-03-02T04:36:40;96500.77;;;2.93;81.52
34205;BME280;20471;49.680;20.074;2024-03-02T04:39:08;96510.55;;;2.94;81.50
34205;BME280;20471;49.680;20.074;2024-03-02T04:41:37;96516.54;;;2.99;81.53
34205;BME280;20471;49.680;20.074;2024-03-02T04:44:05;96516.33;;;3.03;81.57
34205;BME280;20471;49.680;20.074;2024-03-02T04:46:34;96513.95;;;3.02;81.45
34205;BME280;20471;49.680;20.074;2024-03-02T04:49:02;96519.70;;;2.98;81.27
34205;BME280;20471;49.680;20.074;2024-03-02T04:51:29;96520.40;;;2.92;81.27
34205;BME280;20471;49.680;20.074;2024-03-02T04:53:57;96520.01;;;2.86;81.36
34205;BME280;20471;49.680;20.074;2024-03-02T04:56:25;96522.88;;;2.86;81.58
34205;BME280;20471;49.680;20.074;2024-03-02T04:59:11;96524.44;;;2.86;81.47
34205;BME280;20471;49.680;20.074;2024-03-02T05:01:38;96522.78;;;2.85;81.51
34205;BME280;20471;49.680;20.074;2024-03-02T05:04:06;96523.73;;;2.85;81.46
34205;BME280;20471;49.680;20.074;2024-03-02T05:06:34;96525.52;;;2.85;81.36
34205;BME280;20471;49.680;20.074;2024-03-02T05:09:02;96527.97;;;2.84;81.32
34205;BME280;20471;49.680;20.074;2024-03-02T05:11:29;96525.04;;;2.83;81.39
34205;BME280;20471;49.680;20.074;2024-03-02T05:14:19;96524.05;;;2.82;81.44
34205;BME280;20471;49.680;20.074;2024-03-02T05:16:47;96526.80;;;2.80;81.34
34205;BME280;20471;49.680;20.074;2024-03-02T05:19:14;96528.96;;;2.80;81.47
34205;BME280;20471;49.680;20.074;2024-03-02T05:21:42;96530.35;;;2.82;81.64
34205;BME280;20471;49.680;20.074;2024-03-02T05:24:10;96528.49;;;2.84;81.76
34205;BME280;20471;49.680;20.074;2024-03-02T05:26:37;96530.75;;;2.86;81.67
34205;BME280;20471;49.680;20.074;2024-03-02T05:29:05;96530.95;;;2.86;81.78
34205;BME280;20471;49.680;20.074;2024-03-02T05:31:33;96529.35;;;2.85;81.77
34205;BME280;20471;49.680;20.074;2024-03-02T05:34:01;96526.98;;;2.83;81.64
34205;BME280;20471;49.680;20.074;2024-03-02T05:36:29;96521.50;;;2.80;81.68
34205;BME280;20471;49.680;20.074;2024-03-02T05:38:56;96520.18;;;2.82;81.81
34205;BME280;20471;49.680;20.074;2024-03-02T05:41:24;96526.70;;;2.87;81.89
34205;BME280;20471;49.680;20.074;2024-03-02T05:43:52;96532.96;;;2.92;81.89
34205;BME280;20471;49.680;20.074;2024-03-02T05:46:19;96537.64;;;2.93;81.91
34205;BME280;20471;49.680;20.074;2024-03-02T05:48:47;96541.70;;;2.89;81.92
34205;BME280;20471;49.680;20.074;2024-03-02T05:51:14;96551.67;;;2.86;81.97
34205;BME280;20471;49.680;20.074;2024-03-02T05:53:42;96556.34;;;2.84;81.96
34205;BME280;20471;49.680;20.074;2024-03-02T05:56:10;96557.73;;;2.86;82.15
34205;BME280;20471;49.680;20.074;2024-03-02T05:58:38;96557.98;;;2.88;82.17
34205;BME280;20471;49.680;20.074;2024-03-02T06:01:19;96561.09;;;2.90;82.22
34205;BME280;20471;49.680;20.074;2024-03-02T06:03:48;96561.30;;;2.93;82.26
34205;BME280;20471;49.680;20.074;2024-03-02T06:06:16;96564.13;;;2.98;82.32
34205;BME280;20471;49.680;20.074;2024-03-02T06:08:44;96564.94;;;3.00;82.28
34205;BME280;20471;49.680;20.074;2024-03-02T06:11:11;96564.79;;;3.01;82.31
34205;BME280;20471;49.680;20.074;2024-03-02T06:13:39;96564.60;;;3.04;82.39
34205;BME280;20471;49.680;20.074;2024-03-02T06:16:07;96566.15;;;3.06;82.53
34205;BME280;20471;49.680;20.074;2024-03-02T06:18:35;96566.62;;;3.07;82.67
34205;BME280;20471;49.680;20.074;2024-03-02T06:21:03;96566.55;;;3.10;82.68
34205;BME280;20471;49.680;20.074;2024-03-02T06:23:31;96564.31;;;3.15;82.72
34205;BME280;20471;49.680;20.074;2024-03-02T06:25:58;96565.10;;;3.19;82.80
34205;BME280;20471;49.680;20.074;2024-03-02T06:28:26;96572.59;;;3.23;82.84
34205;BME280;20471;49.680;20.074;2024-03-02T06:30:54;96575.73;;;3.26;82.81
34205;BME280;20471;49.680;20.074;2024-03-02T06:33:21;96576.11;;;3.31;82.88
34205;BME280;20471;49.680;20.074;2024-03-02T06:35:49;96574.71;;;3.35;82.96
34205;BME280;20471;49.680;20.074;2024-03-02T06:38:17;96574.55;;;3.40;83.06
34205;BME280;20471;49.680;20.074;2024-03-02T06:40:44;96576.73;;;3.44;83.11
34205;BME280;20471;49.680;20.074;2024-03-02T06:43:12;96578.69;;;3.49;83.23
34205;BME280;20471;49.680;20.074;2024-03-02T06:45:40;96578.50;;;3.54;83.33
34205;BME280;20471;49.680;20.074;2024-03-02T06:48:08;96578.49;;;3.60;83.26
34205;BME280;20471;49.680;20.074;2024-03-02T06:50:35;96579.24;;;3.66;83.30
34205;BME280;20471;49.680;20.074;2024-03-02T06:53:03;96577.94;;;3.69;83.35
34205;BME280;20471;49.680;20.074;2024-03-02T06:55:31;96576.39;;;3.75;83.36
34205;BME280;20471;49.680;20.074;2024-03-02T06:57:58;96573.39;;;3.79;83.42
34205;BME280;20471;49.680;20.074;2024-03-02T07:00:26;96577.12;;;3.84;83.56
34205;BME280;20471;49.680;20.074;2024-03-02T07:02:54;96579.28;;;3.91;83.66
34205;BME280;20471;49.680;20.074;2024-03-02T07:05:22;96578.94;;;3.98;83.74
34205;BME280;20471;49.680;20.074;2024-03-02T07:07:49;96575.45;;;4.07;83.75
34205;BME280;20471;49.680;20.074;2024-03-02T07:10:17;96576.55;;;4.15;83.79
34205;BME280;20471;49.680;20.074;2024-03-02T07:12:45;96578.34;;;4.22;83.82
34205;BME280;20471;49.680;20.074;2024-03-02T07:15:12;96581.02;;;4.27;83.94
34205;BME280;20471;49.680;20.074;2024-03-02T07:17:56;96583.57;;;4.31;83.93
34205;BME280;20471;49.680;20.074;2024-03-02T07:20:24;96584.67;;;4.36;83.95
34205;BME280;20471;49.680;20.074;2024-03-02T07:22:51;96581.98;;;4.42;84.11
34205;BME280;20471;49.680;20.074;2024-03-02T07:25:19;96587.30;;;4.49;84.22
34205;BME280;20471;49.680;20.074;2024-03-02T07:27:47;96593.70;;;4.58;84.14
34205;BME280;20471;49.680;20.074;2024-03-02T07:30:15;96596.05;;;4.64;84.12
34205;BME280;20471;49.680;20.074;2024-03-02T07:32:43;96595.45;;;4.71;84.09
34205;BME280;20471;49.680;20.074;2024-03-02T07:35:13;96595.55;;;4.79;84.20
34205;BME280;20471;49.680;20.074;2024-03-02T07:37:43;96598.60;;;4.87;84.25
34205;BME280;20471;49.680;20.074;2024-03-02T07:40:11;96600.52;;;4.94;84.28
34205;BME280;20471;49.680;20.074;2024-03-02T07:42:40;96595.94;;;5.00;84.17
34205;BME280;20471;49.680;20.074;2024-03-02T07:45:08;96593.51;;;5.08;84.14
34205;BME280;20471;49.680;20.074;2024-03-02T07:47:36;96594.59;;;5.15;84.15
34205;BME280;20471;49.680;20.074;2024-03-02T07:50:04;96592.23;;;5.21;84.05
34205;BME280;20471;49.680;20.074;2024-03-02T07:52:33;96591.69;;;5.26;84.08
34205;BME280;20471;49.680;20.074;2024-03-02T07:55:01;96593.33;;;5.33;84.06
34205;BME280;20471;49.680;20.074;2024-03-02T07:57:29;96594.64;;;5.39;84.12
34205;BME280;20471;49.680;20.074;2024-03-02T07:59:56;96593.05;;;5.44;84.16
34205;BME280;20471;49.680;20.074;2024-03-02T08:02:25;96590.86;;;5.51;84.06
34205;BME280;20471;49.680;20.074;2024-03-02T08:04:53;96588.70;;;5.55;83.97
34205;BME280;20471;49.680;20.074;2024-03-02T08:07:21;96591.63;;;5.60;84.04
34205;BME280;20471;49.680;20.074;2024-03-02T08:09:49;96593.60;;;5.66;84.04
34205;BME280;20471;49.680;20.074;2024-03-02T08:12:16;96598.79;;;5.74;84.14
34205;BME280;20471;49.680;20.074;2024-03-02T08:14:45;96604.98;;;5.83;84.08
34205;BME280;20471;49.680;20.074;2024-03-02T08:17:13;96606.86;;;5.89;83.95
34205;BME280;20471;49.680;20.074;2024-03-02T08:19:41;96608.59;;;5.95;83.99
34205;BME280;20471;49.680;20.074;2024-03-02T08:22:08;96610.36;;;6.00;84.06
34205;BME280;20471;49.680;20.074;2024-03-02T08:24:36;96615.14;;;6.06;84.10
34205;BME280;20471;49.680;20.074;2024-03-02T08:27:04;96618.66;;;6.10;84.12
34205;BME280;20471;49.680;20.074;2024-03-02T08:29:32;96617.23;;;6.15;84.17
34205;BME280;20471;49.680;20.074;2024-03-02T08:31:59;96618.22;;;6.19;84.11
34205;BME280;20471;49.680;20.074;2024-03-02T08:34:27;96620.00;;;6.22;83.77
34205;BME280;20471;49.680;20.074;2024-03-02T08:36:55;96619.68;;;6.24;83.75
34205;BME280;20471;49.680;20.074;2024-03-02T08:39:23;96619.19;;;6.28;83.61
34205;BME280;20471;49.680;20.074;2024-03-02T08:41:50;96618.73;;;6.33;83.76
34205;BME280;20471;49.680;20.074;2024-03-02T08:44:18;96613.93;;;6.37;83.70
34205;BME280;20471;49.680;20.074;2024-03-02T08:46:46;96611.02;;;6.40;83.59
34205;BME280;20471;49.680;20.074;2024-03-02T08:49:14;96611.13;;;6.44;83.56
34205;BME280;20471;49.680;20.074;2024-03-02T08:51:41;96614.36;;;6.48;83.77
34205;BME280;20471;49.680;20.074;2024-03-02T08:54:09;96613.58;;;6.51;83.77
34205;BME280;20471;49.680;20.074;2024-03-02T08:56:37;96614.98;;;6.55;83.68
34205;BME280;20471;49.680;20.074;2024-03-02T08:59:04;96615.36;;;6.61;83.71
34205;BME280;20471;49.680;20.074;2024-03-02T09:01:32;96613.38;;;6.66;83.67
34205;BME280;20471;49.680;20.074;2024-03-02T09:04:00;96619.06;;;6.70;83.48
34205;BME280;20471;49.680;20.074;2024-03-02T09:06:28;96615.98;;;6.74;83.46
34205;BME280;20471;49.680;20.074;2024-03-02T09:08:55;96615.48;;;6.80;83.55
34205;BME280;20471;49.680;20.074;2024-03-02T09:11:23;96618.98;;;6.88;83.47
34205;BME280;20471;49.680;20.074;2024-03-02T09:13:51;96618.98;;;6.95;83.53
34205;BME280;20471;49.680;20.074;2024-03-02T09:16:19;96618.18;;;7.02;83.45
34205;BME280;20471;49.680;20.074;2024-03-02T09:18:47;96624.14;;;7.08;83.63
34205;BME280;20471;49.680;20.074;2024-03-02T09:21:14;96625.69;;;7.16;83.70
34205;BME280;20471;49.680;20.074;2024-03-02T09:23:42;96627.45;;;7.24;83.64
34205;BME280;20471;49.680;20.074;2024-03-02T09:26:12;96627.27;;;7.33;83.62
34205;BME280;20471;49.680;20.074;2024-03-02T09:28:43;96629.70;;;7.40;83.39
34205;BME280;20471;49.680;20.074;2024-03-02T09:31:11;96632.40;;;7.46;83.42
34205;BME280;20471;49.680;20.074;2024-03-02T09:33:39;96631.22;;;7.52;83.40
34205;BME280;20471;49.680;20.074;2024-03-02T09:36:19;96631.41;;;7.60;83.43
34205;BME280;20471;49.680;20.074;2024-03-02T09:38:48;96629.58;;;7.70;83.44
34205;BME280;20471;49.680;20.074;2024-03-02T09:41:16;96632.84;;;7.78;83.47
34205;BME280;20471;49.680;20.074;2024-03-02T09:43:44;96634.45;;;7.86;83.43
34205;BME280;20471;49.680;20.074;2024-03-02T09:46:11;96636.09;;;7.93;83.34
34205;BME280;20471;49.680;20.074;2024-03-02T09:48:39;96628.12;;;7.99;83.19
34205;BME280;20471;49.680;20.074;2024-03-02T09:51:08;96633.64;;;8.02;83.06
34205;BME280;20471;49.680;20.074;2024-03-02T09:53:36;96635.84;;;8.02;83.15
34205;BME280;20471;49.680;20.074;2024-03-02T09:56:04;96637.08;;;8.04;83.18
34205;BME280;20471;49.680;20.074;2024-03-02T09:58:32;96636.50;;;8.09;83.07
34205;BME280;20471;49.680;20.074;2024-03-02T10:01:00;96636.23;;;8.15;82.97
34205;BME280;20471;49.680;20.074;2024-03-02T10:03:28;96636.67;;;8.20;82.92
34205;BME280;20471;49.680;20.074;2024-03-02T10:06:24;96637.39;;;8.22;82.85
34205;BME280;20471;49.680;20.074;2024-03-02T10:08:53;96638.00;;;8.23;82.79
34205;BME280;20471;49.680;20.074;2024-03-02T10:14:11;96633.10;;;8.27;82.90
34205;BME280;20471;49.680;20.074;2024-03-02T10:16:41;96631.73;;;8.31;83.02
34205;BME280;20471;49.680;20.074;2024-03-02T10:21:47;96627.81;;;8.32;82.90
34205;BME280;20471;49.680;20.074;2024-03-02T10:24:16;96627.13;;;8.36;82.73
34205;BME280;20471;49.680;20.074;2024-03-02T10:26:44;96627.39;;;8.42;82.78
34205;BME280;20471;49.680;20.074;2024-03-02T10:29:12;96629.80;;;8.45;82.73
34205;BME280;20471;49.680;20.074;2024-03-02T10:31:45;96628.83;;;8.48;82.84
34205;BME280;20471;49.680;20.074;2024-03-02T10:34:13;96631.42;;;8.51;82.74
34205;BME280;20471;49.680;20.074;2024-03-02T10:36:43;96628.65;;;8.51;82.65
34205;BME280;20471;49.680;20.074;2024-03-02T10:39:12;96625.86;;;8.55;82.50
34205;BME280;20471;49.680;20.074;2024-03-02T10:41:41;96625.41;;;8.58;82.40
34205;BME280;20471;49.680;20.074;2024-03-02T10:44:09;96624.81;;;8.59;82.26
34205;BME280;20471;49.680;20.074;2024-03-02T10:46:37;96629.17;;;8.57;82.27
34205;BME280;20471;49.680;20.074;2024-03-02T10:49:06;96627.51;;;8.58;82.44
34205;BME280;20471;49.680;20.074;2024-03-02T10:51:33;96627.04;;;8.61;82.13
34205;BME280;20471;49.680;20.074;2024-03-02T10:54:03;96626.11;;;8.64;82.13
34205;BME280;20471;49.680;20.074;2024-03-02T10:56:40;96621.67;;;8.68;82.16
34205;BME280;20471;49.680;20.074;2024-03-02T11:01:56;96619.17;;;8.71;82.04
34205;BME280;20471;49.680;20.074;2024-03-02T11:04:26;96616.48;;;8.74;81.88
34205;BME280;20471;49.680;20.074;2024-03-02T11:07:04;96617.50;;;8.76;81.90
34205;BME280;20471;49.680;20.074;2024-03-02T11:09:37;96615.02;;;8.80;81.94
34205;BME280;20471;49.680;20.074;2024-03-02T11:14:41;96612.38;;;8.91;81.72
34205;BME280;20471;49.680;20.074;2024-03-02T11:17:11;96610.15;;;8.97;81.82
34205;BME280;20471;49.680;20.074;2024-03-02T11:19:42;96609.01;;;9.03;81.77
34205;BME280;20471;49.680;20.074;2024-03-02T11:22:11;96607.23;;;9.10;81.70
34205;BME280;20471;49.680;20.074;2024-03-02T11:24:47;96606.79;;;9.14;81.70
34205;BME280;20471;49.680;20.074;2024-03-02T11:27:58;96604.86;;;9.18;81.93
34205;BME280;20471;49.680;20.074;2024-03-02T11:33:00;96593.00;;;9.33;81.97
34205;BME280;20471;49.680;20.074;2024-03-02T11:35:34;96590.63;;;9.42;81.68
34205;BME280;20471;49.680;20.074;2024-03-02T11:38:02;96588.85;;;9.50;81.59
34205;BME280;20471;49.680;20.074;2024-03-02T11:40:30;96590.19;;;9.59;81.53
34205;BME280;20471;49.680;20.074;2024-03-02T11:43:01;96592.22;;;9.69;81.63
34205;BME280;20471;49.680;20.074;2024-03-02T11:45:29;96590.36;;;9.79;81.09
34205;BME280;20471;49.680;20.074;2024-03-02T11:47:58;96589.85;;;9.83;80.79
34205;BME280;20471;49.680;20.074;2024-03-02T11:50:35;96584.63;;;9.91;80.75
34205;BME280;20471;49.680;20.074;2024-03-02T11:53:09;96583.61;;;9.99;80.46
34205;BME280;20471;49.680;20.074;2024-03-02T11:55:39;96583.23;;;10.05;80.30
34205;BME280;20471;49.680;20.074;2024-03-02T11:58:07;96587.09;;;10.14;80.43
34205;BME280;20471;49.680;20.074;2024-03-02T12:00:35;96588.31;;;10.24;80.34
34205;BME280;20471;49.680;20.074;2024-03-02T12:03:08;96584.61;;;10.33;80.09
34205;BME280;20471;49.680;20.074;2024-03-02T12:05:37;96582.73;;;10.43;79.77
34205;BME280;20471;49.680;20.074;2024-03-02T12:08:06;96580.13;;;10.53;79.62
34205;BME280;20471;49.680;20.074;2024-03-02T12:10:36;96580.75;;;10.63;79.63
34205;BME280;20471;49.680;20.074;2024-03-02T12:13:05;96576.42;;;10.69;79.30
34205;BME280;20471;49.680;20.074;2024-03-02T12:15:35;96579.71;;;10.72;78.88
34205;BME280;20471;49.680;20.074;2024-03-02T12:18:04;96577.36;;;10.78;78.71
34205;BME280;20471;49.680;20.074;2024-03-02T12:20:33;96578.77;;;10.85;78.67
34205;BME280;20471;49.680;20.074;2024-03-02T12:23:02;96578.73;;;10.93;78.78
34205;BME280;20471;49.680;20.074;2024-03-02T12:25:31;96579.91;;;11.01;78.82
34205;BME280;20471;49.680;20.074;2024-03-02T12:28:01;96579.98;;;11.11;78.84
34205;BME280;20471;49.680;20.074;2024-03-02T12:30:29;96579.57;;;11.21;78.66
34205;BME280;20471;49.680;20.074;2024-03-02T12:32:58;96574.45;;;11.31;78.23
34205;BME280;20471;49.680;20.074;2024-03-02T12:35:26;96565.30;;;11.38;77.59
34205;BME280;20471;49.680;20.074;2024-03-02T12:37:54;96564.70;;;11.44;77.39
34205;BME280;20471;49.680;20.074;2024-03-02T12:40:22;96567.38;;;11.51;77.41
34205;BME280;20471;49.680;20.074;2024-03-02T12:42:50;96566.25;;;11.56;77.13
34205;BME280;20471;49.680;20.074;2024-03-02T12:45:18;96566.17;;;11.58;76.85
34205;BME280;20471;49.680;20.074;2024-03-02T12:47:50;96566.98;;;11.61;76.38
34205;BME280;20471;49.680;20.074;2024-03-02T12:50:18;96565.19;;;11.65;76.20
34205;BME280;20471;49.680;20.074;2024-03-02T12:52:53;96567.39;;;11.69;76.14
34205;BME280;20471;49.680;20.074;2024-03-02T12:55:22;96562.76;;;11.75;76.00
34205;BME280;20471;49.680;20.074;2024-03-02T12:57:51;96559.09;;;11.82;75.88
34205;BME280;20471;49.680;20.074;2024-03-02T13:00:20;96559.75;;;11.94;75.92
34205;BME280;20471;49.680;20.074;2024-03-02T13:02:48;96555.19;;;12.07;75.62
34205;BME280;20471;49.680;20.074;2024-03-02T13:05:17;96552.95;;;12.17;75.35
34205;BME280;20471;49.680;20.074;2024-03-02T13:07:47;96555.17;;;12.32;75.34
34205;BME280;20471;49.680;20.074;2024-03-02T13:10:15;96553.52;;;12.48;74.94
34205;BME280;20471;49.680;20.074;2024-03-02T13:12:43;96546.70;;;12.60;74.36
34205;BME280;20471;49.680;20.074;2024-03-02T13:15:10;96544.69;;;12.67;73.75
34205;BME280;20471;49.680;20.074;2024-03-02T13:17:38;96543.85;;;12.69;73.11
34205;BME280;20471;49.680;20.074;2024-03-02T13:20:07;96540.08;;;12.70;73.16
34205;BME280;20471;49.680;20.074;2024-03-02T13:22:36;96542.10;;;12.74;72.91
34205;BME280;20471;49.680;20.074;2024-03-02T13:25:05;96541.14;;;12.81;73.08